createdAt,value
2019-04-06T00:01:05.330Z,10.80
2019-04-06T00:04:09.082Z,10.80
2019-04-06T00:07:12.893Z,10.80
2019-04-06T00:10:17.119Z,10.90
2019-04-06T00:13:20.958Z,10.90
2019-04-06T00:16:24.913Z,11.00
2019-04-06T00:19:28.830Z,11.00
2019-04-06T00:22:32.658Z,11.10
2019-04-06T00:25:44.215Z,11.20
2019-04-06T00:28:41.938Z,11.20
2019-04-06T00:32:03.490Z,11.30
2019-04-06T00:35:07.675Z,11.20
2019-04-06T00:38:11.371Z,11.30
2019-04-06T00:41:15.022Z,11.30
2019-04-06T00:44:18.858Z,11.30
2019-04-06T00:47:22.789Z,11.30
2019-04-06T00:50:26.574Z,11.40
2019-04-06T00:53:30.534Z,11.40
2019-04-06T00:56:34.193Z,11.50
2019-04-06T00:59:37.898Z,11.60
2019-04-06T01:02:41.670Z,11.60
2019-04-06T01:05:46.326Z,11.70
2019-04-06T01:08:50.061Z,11.70
2019-04-06T01:11:54.273Z,11.80
2019-04-06T01:14:58.045Z,11.90
2019-04-06T01:18:02.107Z,12.00
2019-04-06T01:21:06.867Z,12.00
2019-04-06T01:24:10.555Z,12.00
2019-04-06T01:27:14.273Z,12.20
2019-04-06T01:30:18.178Z,12.20
2019-04-06T01:33:22.203Z,12.20
2019-04-06T01:36:25.893Z,12.10
2019-04-06T01:39:29.576Z,12.10
2019-04-06T01:42:33.297Z,12.10
2019-04-06T01:45:37.191Z,12.10
2019-04-06T01:48:40.934Z,12.00
2019-04-06T01:51:44.616Z,12.00
2019-04-06T01:54:48.298Z,12.10
2019-04-06T01:57:52.039Z,12.00
2019-04-06T02:01:13.795Z,12.00
2019-04-06T02:04:17.750Z,11.90
2019-04-06T02:07:21.482Z,11.90
2019-04-06T02:10:25.185Z,11.80
2019-04-06T02:13:28.883Z,11.70
2019-04-06T02:16:32.574Z,11.70
2019-04-06T02:19:36.296Z,11.60
2019-04-06T02:22:39.973Z,11.50
2019-04-06T02:25:43.640Z,11.50
2019-04-06T02:28:47.397Z,11.50
2019-04-06T02:32:03.122Z,11.40
2019-04-06T02:35:32.139Z,11.40
2019-04-06T02:38:55.794Z,11.30
2019-04-06T02:42:06.270Z,11.30
2019-04-06T02:45:10.316Z,11.30
2019-04-06T02:48:14.080Z,11.20
2019-04-06T02:51:17.846Z,11.20
2019-04-06T02:54:21.623Z,11.20
2019-04-06T02:57:25.306Z,11.20
2019-04-06T03:00:29.261Z,11.20
2019-04-06T03:03:33.383Z,11.20
2019-04-06T03:06:37.350Z,11.20
2019-04-06T03:09:41.105Z,11.20
2019-04-06T03:12:44.860Z,11.20
2019-04-06T03:15:48.748Z,11.20
2019-04-06T03:18:52.850Z,11.10
2019-04-06T03:21:56.567Z,11.10
2019-04-06T03:25:00.321Z,11.10
2019-04-06T03:28:04.209Z,11.00
2019-04-06T03:31:08.236Z,11.00
2019-04-06T03:34:12.374Z,11.00
2019-04-06T03:37:16.161Z,10.90
2019-04-06T03:40:19.902Z,10.90
2019-04-06T03:43:23.618Z,10.80
2019-04-06T03:46:27.276Z,10.80
2019-04-06T03:49:31.011Z,10.80
2019-04-06T03:52:34.998Z,10.80
2019-04-06T03:55:39.525Z,10.70
2019-04-06T03:58:43.636Z,10.70
2019-04-06T04:01:47.695Z,10.60
2019-04-06T04:04:51.475Z,10.60
2019-04-06T04:07:55.502Z,10.60
2019-04-06T04:10:59.237Z,10.50
2019-04-06T04:14:03.328Z,10.50
2019-04-06T04:17:07.146Z,10.50
2019-04-06T04:20:11.151Z,10.50
2019-04-06T04:23:14.918Z,10.40
2019-04-06T04:26:18.678Z,10.40
2019-04-06T04:29:22.611Z,10.40
2019-04-06T04:32:26.840Z,10.40
2019-04-06T04:35:30.561Z,10.40
2019-04-06T04:38:34.328Z,10.50
2019-04-06T04:41:39.798Z,10.60
2019-04-06T04:44:43.908Z,10.70
2019-04-06T04:47:50.026Z,10.90
2019-04-06T04:50:53.222Z,11.00
2019-04-06T04:53:57.179Z,11.10
2019-04-06T04:57:00.981Z,11.20
2019-04-06T05:00:05.647Z,11.30
2019-04-06T05:03:09.363Z,11.30
2019-04-06T05:06:13.053Z,11.30
2019-04-06T05:09:17.082Z,11.40
2019-04-06T05:12:20.977Z,11.50
2019-04-06T05:16:05.187Z,11.50
2019-04-06T05:19:08.901Z,11.50
2019-04-06T05:22:12.949Z,11.60
2019-04-06T05:25:16.810Z,11.70
2019-04-06T05:28:20.570Z,11.80
2019-04-06T05:31:24.483Z,11.90
2019-04-06T05:34:28.174Z,11.90
2019-04-06T05:37:31.922Z,12.00
2019-04-06T05:40:35.621Z,12.00
2019-04-06T05:43:39.329Z,12.10
2019-04-06T05:46:43.114Z,12.20
2019-04-06T05:49:47.384Z,12.30
2019-04-06T05:52:51.078Z,12.40
2019-04-06T05:55:54.842Z,12.40
2019-04-06T05:58:58.646Z,12.50
2019-04-06T06:02:02.810Z,12.50
2019-04-06T06:05:08.561Z,12.60
2019-04-06T06:08:13.118Z,12.60
2019-04-06T06:11:16.866Z,12.70
2019-04-06T06:14:20.814Z,12.70
2019-04-06T06:17:24.649Z,13.40
2019-04-06T06:20:28.385Z,14.40
2019-04-06T06:23:32.292Z,14.50
2019-04-06T06:26:36.174Z,14.40
2019-04-06T06:29:39.863Z,14.20
2019-04-06T06:32:43.714Z,14.20
2019-04-06T06:35:47.517Z,14.50
2019-04-06T06:38:51.354Z,14.50
2019-04-06T06:41:55.178Z,14.40
2019-04-06T06:44:58.991Z,14.30
2019-04-06T06:48:02.748Z,14.30
2019-04-06T06:51:06.576Z,14.30
2019-04-06T06:54:10.289Z,14.50
2019-04-06T06:57:13.975Z,14.60
2019-04-06T07:00:17.750Z,15.00
2019-04-06T07:03:21.503Z,15.30
2019-04-06T07:06:25.253Z,15.30
2019-04-06T07:09:29.549Z,15.10
2019-04-06T07:12:33.253Z,15.00
2019-04-06T07:15:36.916Z,15.00
2019-04-06T07:18:40.824Z,15.00
2019-04-06T07:21:44.668Z,15.00
2019-04-06T07:24:48.462Z,15.00
2019-04-06T07:27:52.372Z,15.10
2019-04-06T07:30:56.134Z,15.10
2019-04-06T07:33:59.937Z,15.10
2019-04-06T07:37:03.690Z,15.10
2019-04-06T07:40:08.669Z,15.20
2019-04-06T07:43:12.666Z,15.30
2019-04-06T07:46:16.526Z,15.40
2019-04-06T07:49:20.274Z,15.40
2019-04-06T07:52:24.910Z,15.50
2019-04-06T07:55:28.601Z,15.60
2019-04-06T07:58:32.378Z,15.60
2019-04-06T08:01:36.045Z,15.70
2019-04-06T08:04:39.838Z,15.90
2019-04-06T08:07:43.577Z,15.90
2019-04-06T08:10:47.229Z,16.00
2019-04-06T08:13:50.959Z,16.20
2019-04-06T08:16:54.773Z,16.30
2019-04-06T08:19:58.466Z,16.40
2019-04-06T08:23:02.180Z,16.50
2019-04-06T08:26:05.923Z,16.60
2019-04-06T08:29:09.597Z,16.70
2019-04-06T08:32:13.320Z,16.80
2019-04-06T08:35:25.089Z,16.90
2019-04-06T08:38:22.702Z,17.00
2019-04-06T08:41:26.405Z,17.00
2019-04-06T08:44:30.165Z,17.10
2019-04-06T08:47:34.274Z,17.20
2019-04-06T08:50:38.058Z,17.20
2019-04-06T08:53:41.987Z,17.30
2019-04-06T08:56:45.768Z,17.40
2019-04-06T08:59:49.526Z,17.60
2019-04-06T09:02:53.217Z,17.80
2019-04-06T09:05:56.955Z,17.80
2019-04-06T09:09:00.922Z,18.00
2019-04-06T09:12:04.801Z,18.10
2019-04-06T09:15:09.368Z,18.10
2019-04-06T09:18:13.075Z,18.10
2019-04-06T09:21:16.799Z,18.20
2019-04-06T09:24:20.710Z,18.30
2019-04-06T09:27:24.405Z,18.30
2019-04-06T09:30:30.517Z,18.50
2019-04-06T09:33:34.287Z,18.60
2019-04-06T09:36:38.014Z,18.70
2019-04-06T09:39:41.713Z,18.80
2019-04-06T09:42:45.431Z,18.90
2019-04-06T09:46:06.308Z,19.00
2019-04-06T09:49:32.933Z,19.10
2019-04-06T09:52:47.142Z,19.20
2019-04-06T09:56:17.165Z,19.30
2019-04-06T09:59:35.888Z,19.40
2019-04-06T10:03:10.241Z,19.60
2019-04-06T10:06:26.198Z,19.70
2019-04-06T10:09:45.045Z,19.70
2019-04-06T10:13:06.714Z,19.70
2019-04-06T10:16:21.983Z,19.70
2019-04-06T10:19:40.327Z,19.90
2019-04-06T10:22:52.985Z,20.10
2019-04-06T10:26:25.422Z,20.20
2019-04-06T10:29:48.867Z,20.40
2019-04-06T10:32:57.637Z,20.50
2019-04-06T10:36:23.396Z,20.60
2019-04-06T10:39:34.081Z,20.80
2019-04-06T10:42:51.868Z,20.90
2019-04-06T10:46:12.537Z,21.10
2019-04-06T10:49:26.389Z,21.20
2019-04-06T10:52:58.243Z,21.30
2019-04-06T10:56:30.279Z,21.30
2019-04-06T10:59:45.181Z,21.20
2019-04-06T11:02:59.781Z,21.40
2019-04-06T11:06:14.526Z,21.60
2019-04-06T11:09:37.411Z,21.70
2019-04-06T11:12:52.229Z,21.70
2019-04-06T11:16:13.118Z,21.60
2019-04-06T11:19:32.748Z,21.70
2019-04-06T11:22:49.417Z,21.80
2019-04-06T11:26:21.261Z,21.80
2019-04-06T11:29:29.526Z,21.80
2019-04-06T11:32:45.171Z,21.90
2019-04-06T11:35:57.222Z,22.00
2019-04-06T11:39:18.902Z,21.90
2019-04-06T11:42:44.885Z,22.00
2019-04-06T11:46:23.502Z,22.10
2019-04-06T11:49:38.457Z,22.30
2019-04-06T11:53:04.314Z,22.40
2019-04-06T11:56:27.093Z,22.50
2019-04-06T11:59:47.698Z,22.70
2019-04-06T12:02:56.364Z,22.70
2019-04-06T12:06:07.189Z,22.80
2019-04-06T12:09:22.595Z,22.70
2019-04-06T12:12:45.394Z,22.80
2019-04-06T12:16:07.368Z,22.90
2019-04-06T12:19:15.669Z,22.90
2019-04-06T12:22:27.656Z,22.80
2019-04-06T12:26:02.601Z,22.70
2019-04-06T12:29:17.211Z,22.80
2019-04-06T12:32:45.318Z,22.90
2019-04-06T12:36:07.081Z,22.70
2019-04-06T12:39:36.094Z,22.80
2019-04-06T12:42:45.178Z,22.80
2019-04-06T12:46:12.543Z,22.70
2019-04-06T12:49:35.417Z,22.80
2019-04-06T12:53:07.075Z,22.70
2019-04-06T12:56:22.647Z,22.80
2019-04-06T12:59:43.530Z,22.70
2019-04-06T13:03:24.347Z,22.80
2019-04-06T13:07:00.184Z,22.80
2019-04-06T13:10:19.081Z,23.00
2019-04-06T13:13:42.074Z,23.10
2019-04-06T13:17:02.642Z,23.10
2019-04-06T13:20:15.185Z,23.10
2019-04-06T13:23:37.182Z,23.30
2019-04-06T13:27:12.132Z,23.20
2019-04-06T13:30:26.214Z,23.10
2019-04-06T13:33:46.534Z,23.20
2019-04-06T13:37:00.231Z,23.30
2019-04-06T13:40:21.914Z,23.30
2019-04-06T13:43:38.647Z,23.10
2019-04-06T13:47:07.981Z,23.00
2019-04-06T13:50:17.785Z,23.00
2019-04-06T13:53:40.633Z,23.00
2019-04-06T13:57:03.695Z,23.00
2019-04-06T14:00:17.768Z,23.10
2019-04-06T14:03:55.655Z,23.10
2019-04-06T14:07:18.442Z,23.00
2019-04-06T14:10:43.734Z,23.00
2019-04-06T14:13:54.444Z,22.90
2019-04-06T14:17:08.684Z,22.80
2019-04-06T14:20:32.603Z,22.70
2019-04-06T14:23:42.455Z,22.50
2019-04-06T14:27:05.027Z,22.60
2019-04-06T14:30:21.282Z,22.70
2019-04-06T14:33:45.441Z,22.70
2019-04-06T14:37:16.394Z,22.80
2019-04-06T14:40:33.083Z,22.80
2019-04-06T14:43:48.870Z,22.70
2019-04-06T14:47:03.146Z,22.70
2019-04-06T14:50:14.451Z,22.60
2019-04-06T14:53:27.126Z,22.60
2019-04-06T14:56:37.290Z,22.60
2019-04-06T14:59:55.889Z,22.70
2019-04-06T15:03:19.062Z,22.60
2019-04-06T15:07:09.552Z,22.60
2019-04-06T15:10:25.434Z,22.50
2019-04-06T15:13:44.281Z,22.40
2019-04-06T15:17:06.345Z,22.40
2019-04-06T15:20:17.119Z,22.40
2019-04-06T15:23:30.329Z,22.40
2019-04-06T15:26:59.101Z,22.30
2019-04-06T15:30:22.895Z,22.20
2019-04-06T15:33:35.818Z,22.10
2019-04-06T15:36:49.014Z,22.10
2019-04-06T15:40:05.457Z,22.30
2019-04-06T15:43:40.411Z,22.30
2019-04-06T15:46:57.573Z,22.10
2019-04-06T15:50:19.193Z,21.90
2019-04-06T15:53:39.856Z,21.80
2019-04-06T15:57:05.555Z,21.60
2019-04-06T16:00:44.342Z,21.30
2019-04-06T16:04:08.418Z,21.20
2019-04-06T16:07:37.274Z,21.10
2019-04-06T16:10:58.937Z,21.00
2019-04-06T16:14:25.037Z,20.90
2019-04-06T16:17:36.020Z,20.80
2019-04-06T16:21:03.422Z,20.70
2019-04-06T16:24:26.974Z,20.60
2019-04-06T16:27:48.287Z,20.50
2019-04-06T16:31:01.399Z,20.40
2019-04-06T16:34:13.207Z,20.30
2019-04-06T16:37:25.961Z,20.20
2019-04-06T16:40:54.637Z,20.10
2019-04-06T16:44:20.127Z,20.00
2019-04-06T16:47:41.370Z,19.90
2019-04-06T16:51:00.108Z,19.80
2019-04-06T16:54:12.182Z,19.70
2019-04-06T16:57:41.399Z,19.70
2019-04-06T17:01:00.653Z,19.50
2019-04-06T17:04:26.887Z,19.40
2019-04-06T17:07:48.246Z,19.30
2019-04-06T17:11:11.086Z,19.20
2019-04-06T17:14:27.400Z,19.20
2019-04-06T17:17:48.057Z,19.20
2019-04-06T17:21:13.754Z,19.10
2019-04-06T17:24:28.242Z,18.90
2019-04-06T17:27:40.742Z,18.90
2019-04-06T17:31:03.910Z,18.70
2019-04-06T17:34:29.592Z,18.70
2019-04-06T17:37:42.098Z,18.50
2019-04-06T17:40:51.070Z,18.40
2019-04-06T17:44:03.819Z,18.30
2019-04-06T17:47:25.547Z,18.20
2019-04-06T17:50:55.556Z,18.20
2019-04-06T17:54:18.757Z,18.10
2019-04-06T17:57:33.607Z,18.00
2019-04-06T18:00:50.356Z,17.90
2019-04-06T18:04:03.017Z,17.80
2019-04-06T18:07:32.305Z,17.70
2019-04-06T18:10:54.689Z,17.60
2019-04-06T18:13:58.540Z,17.60
2019-04-06T18:17:02.314Z,17.60
2019-04-06T18:20:07.598Z,17.50
2019-04-06T18:23:11.384Z,17.50
2019-04-06T18:26:15.544Z,17.40
2019-04-06T18:29:19.449Z,17.40
2019-04-06T18:33:00.714Z,17.40
2019-04-06T18:36:00.608Z,17.40
2019-04-06T18:39:08.509Z,17.30
2019-04-06T18:42:12.290Z,17.30
2019-04-06T18:45:16.592Z,17.20
2019-04-06T18:48:20.491Z,17.10
2019-04-06T18:51:24.251Z,17.10
2019-04-06T18:54:27.953Z,17.00
2019-04-06T18:57:32.181Z,17.00
2019-04-06T19:00:36.723Z,16.90
2019-04-06T19:03:40.461Z,16.90
2019-04-06T19:06:45.454Z,16.90
2019-04-06T19:09:49.181Z,16.80
2019-04-06T19:12:53.054Z,16.70
2019-04-06T19:15:56.828Z,16.80
2019-04-06T19:19:00.602Z,16.70
2019-04-06T19:22:04.455Z,16.80
2019-04-06T19:25:08.534Z,16.80
2019-04-06T19:28:12.309Z,16.80
2019-04-06T19:31:16.082Z,16.70
2019-04-06T19:34:19.945Z,16.70
2019-04-06T19:37:23.831Z,16.60
2019-04-06T19:40:28.598Z,16.60
2019-04-06T19:43:32.342Z,16.60
2019-04-06T19:46:36.307Z,16.50
2019-04-06T19:49:40.338Z,16.40
2019-04-06T19:52:44.426Z,16.30
2019-04-06T19:55:48.461Z,16.20
2019-04-06T19:58:52.429Z,16.20
2019-04-06T20:01:56.608Z,16.20
2019-04-06T20:05:00.483Z,16.20
2019-04-06T20:08:04.761Z,16.20
2019-04-06T20:11:09.029Z,16.10
2019-04-06T20:14:13.079Z,16.00
2019-04-06T20:17:16.994Z,16.00
2019-04-06T20:20:21.195Z,16.00
2019-04-06T20:23:27.014Z,16.00
2019-04-06T20:26:32.235Z,15.90
2019-04-06T20:29:36.714Z,15.80
2019-04-06T20:32:40.699Z,15.80
2019-04-06T20:35:44.521Z,15.80
2019-04-06T20:38:48.526Z,15.70
2019-04-06T20:41:52.991Z,15.70
2019-04-06T20:44:56.877Z,15.60
2019-04-06T20:48:00.851Z,15.60
2019-04-06T20:51:05.005Z,15.60
2019-04-06T20:54:09.250Z,15.50
2019-04-06T20:57:13.165Z,15.40
2019-04-06T21:00:17.766Z,15.30
2019-04-06T21:03:21.709Z,15.30
2019-04-06T21:06:25.684Z,15.20
2019-04-06T21:09:29.466Z,15.10
2019-04-06T21:12:33.428Z,15.10
2019-04-06T21:15:37.669Z,15.10
2019-04-06T21:18:41.902Z,15.10
2019-04-06T21:21:47.079Z,15.00
2019-04-06T21:24:51.491Z,14.90
2019-04-06T21:27:55.800Z,14.90
2019-04-06T21:30:59.797Z,14.80
2019-04-06T21:34:11.561Z,14.70
2019-04-06T21:37:10.183Z,14.70
2019-04-06T21:40:14.744Z,14.70
2019-04-06T21:43:19.158Z,14.70
2019-04-06T21:46:23.532Z,14.60
2019-04-06T21:49:27.960Z,14.50
2019-04-06T21:52:31.958Z,14.50
2019-04-06T21:55:35.784Z,14.40
2019-04-06T21:58:40.420Z,14.40
2019-04-06T22:01:45.023Z,14.30
2019-04-06T22:04:49.718Z,14.30
2019-04-06T22:07:54.770Z,14.30
2019-04-06T22:10:58.569Z,14.30
2019-04-06T22:14:02.423Z,14.20
2019-04-06T22:17:07.415Z,14.10
2019-04-06T22:20:12.333Z,14.00
2019-04-06T22:23:16.285Z,14.00
2019-04-06T22:26:20.007Z,14.00
2019-04-06T22:29:23.882Z,14.00
2019-04-06T22:32:27.662Z,14.00
2019-04-06T22:35:31.399Z,14.00
2019-04-06T22:38:35.135Z,13.90
2019-04-06T22:41:39.286Z,13.90
2019-04-06T22:44:42.994Z,13.90
2019-04-06T22:47:47.290Z,13.90
2019-04-06T22:50:50.994Z,13.80
2019-04-06T22:53:54.718Z,13.80
2019-04-06T22:56:58.822Z,13.80
2019-04-06T23:00:02.524Z,13.80
2019-04-06T23:03:18.462Z,13.80
2019-04-06T23:06:27.289Z,13.80
2019-04-06T23:09:30.998Z,13.70
2019-04-06T23:12:34.697Z,13.80
2019-04-06T23:15:39.378Z,13.70
2019-04-06T23:18:43.414Z,13.60
2019-04-06T23:21:47.560Z,13.50
2019-04-06T23:24:51.679Z,13.50
2019-04-06T23:27:55.664Z,13.50
2019-04-06T23:30:59.407Z,13.40
2019-04-06T23:34:03.459Z,13.50
2019-04-06T23:37:07.282Z,13.50
2019-04-06T23:40:11.255Z,13.40
2019-04-06T23:43:15.073Z,13.30
2019-04-06T23:46:19.015Z,13.30
2019-04-06T23:49:23.529Z,13.20
2019-04-06T23:52:27.470Z,13.20
2019-04-06T23:55:32.698Z,13.10
2019-04-06T23:58:36.486Z,13.00
